sensor_id;sensor_type;location;lat;lon;timestamp;P1;durP1;ratioP1;P2;durP2;ratioP2
70385;SDS011;63206;55.650;37.500;2022-10-16T00:02:25;9.77;;;3.85;;
70385;SDS011;63206;55.650;37.500;2022-10-16T00:04:54;9.65;;;3.90;;
70385;SDS011;63206;55.650;37.500;2022-10-16T00:07:26;9.77;;;4.03;;
70385;SDS011;63206;55.650;37.500;2022-10-16T00:09:58;11.43;;;4.30;;
70385;SDS011;63206;55.650;37.500;2022-10-16T00:12:24;10.02;;;4.22;;
70385;SDS011;63206;55.650;37.500;2022-10-16T00:14:55;8.85;;;3.65;;
70385;SDS011;63206;55.650;37.500;2022-10-16T00:17:21;14.15;;;3.88;;
70385;SDS011;63206;55.650;37.500;2022-10-16T00:19:53;9.50;;;4.10;;
70385;SDS011;63206;55.650;37.500;2022-10-16T00:22:38;10.85;;;4.38;;
70385;SDS011;63206;55.650;37.500;2022-10-16T00:25:04;10.63;;;4.18;;
70385;SDS011;63206;55.650;37.500;2022-10-16T00:27:35;11.00;;;3.95;;
70385;SDS011;63206;55.650;37.500;2022-10-16T00:30:02;11.75;;;4.15;;
70385;SDS011;63206;55.650;37.500;2022-10-16T00:32:28;10.13;;;3.90;;
70385;SDS011;63206;55.650;37.500;2022-10-16T00:34:58;9.23;;;3.95;;
70385;SDS011;63206;55.650;37.500;2022-10-16T00:37:29;12.77;;;4.07;;
70385;SDS011;63206;55.650;37.500;2022-10-16T00:39:59;9.57;;;4.30;;
70385;SDS011;63206;55.650;37.500;2022-10-16T00:42:24;10.90;;;4.15;;
70385;SDS011;63206;55.650;37.500;2022-10-16T00:44:57;10.13;;;3.90;;
70385;SDS011;63206;55.650;37.500;2022-10-16T00:47:29;8.57;;;3.80;;
70385;SDS011;63206;55.650;37.500;2022-10-16T00:52:59;11.07;;;4.60;;
70385;SDS011;63206;55.650;37.500;2022-10-16T00:55:28;9.77;;;3.67;;
70385;SDS011;63206;55.650;37.500;2022-10-16T00:58:01;11.18;;;4.10;;
70385;SDS011;63206;55.650;37.500;2022-10-16T01:00:36;9.07;;;3.85;;
70385;SDS011;63206;55.650;37.500;2022-10-16T01:05:58;12.48;;;4.28;;
70385;SDS011;63206;55.650;37.500;2022-10-16T01:11:41;8.63;;;3.65;;
70385;SDS011;63206;55.650;37.500;2022-10-16T01:17:15;9.98;;;3.72;;
70385;SDS011;63206;55.650;37.500;2022-10-16T01:19:49;8.68;;;4.03;;
70385;SDS011;63206;55.650;37.500;2022-10-16T01:22:16;9.55;;;3.88;;
70385;SDS011;63206;55.650;37.500;2022-10-16T01:24:49;9.85;;;4.00;;
70385;SDS011;63206;55.650;37.500;2022-10-16T01:27:25;8.57;;;3.92;;
70385;SDS011;63206;55.650;37.500;2022-10-16T01:32:40;9.82;;;3.53;;
70385;SDS011;63206;55.650;37.500;2022-10-16T01:35:26;10.02;;;3.78;;
70385;SDS011;63206;55.650;37.500;2022-10-16T01:38:06;12.30;;;4.18;;
70385;SDS011;63206;55.650;37.500;2022-10-16T01:40:34;9.13;;;3.75;;
70385;SDS011;63206;55.650;37.500;2022-10-16T01:43:08;8.57;;;3.60;;
70385;SDS011;63206;55.650;37.500;2022-10-16T01:48:05;7.70;;;3.55;;
70385;SDS011;63206;55.650;37.500;2022-10-16T01:50:39;11.75;;;4.10;;
70385;SDS011;63206;55.650;37.500;2022-10-16T01:53:10;9.02;;;3.75;;
70385;SDS011;63206;55.650;37.500;2022-10-16T01:55:43;11.70;;;4.57;;
70385;SDS011;63206;55.650;37.500;2022-10-16T01:58:11;8.80;;;3.67;;
70385;SDS011;63206;55.650;37.500;2022-10-16T02:00:44;9.02;;;4.07;;
70385;SDS011;63206;55.650;37.500;2022-10-16T02:03:11;10.45;;;4.30;;
70385;SDS011;63206;55.650;37.500;2022-10-16T02:05:41;10.20;;;3.75;;
70385;SDS011;63206;55.650;37.500;2022-10-16T02:08:13;10.10;;;3.97;;
70385;SDS011;63206;55.650;37.500;2022-10-16T02:10:39;11.55;;;4.32;;
70385;SDS011;63206;55.650;37.500;2022-10-16T02:13:54;10.27;;;4.03;;
70385;SDS011;63206;55.650;37.500;2022-10-16T02:15:56;11.48;;;4.07;;
70385;SDS011;63206;55.650;37.500;2022-10-16T02:18:27;9.05;;;4.07;;
70385;SDS011;63206;55.650;37.500;2022-10-16T02:23:30;10.38;;;3.97;;
70385;SDS011;63206;55.650;37.500;2022-10-16T02:26:01;11.32;;;4.40;;
70385;SDS011;63206;55.650;37.500;2022-10-16T02:28:31;11.13;;;4.15;;
70385;SDS011;63206;55.650;37.500;2022-10-16T02:31:03;11.82;;;4.20;;
70385;SDS011;63206;55.650;37.500;2022-10-16T02:33:35;10.05;;;4.30;;
70385;SDS011;63206;55.650;37.500;2022-10-16T02:36:02;11.43;;;4.15;;
70385;SDS011;63206;55.650;37.500;2022-10-16T02:38:31;9.50;;;4.10;;
70385;SDS011;63206;55.650;37.500;2022-10-16T02:40:57;9.02;;;4.20;;
70385;SDS011;63206;55.650;37.500;2022-10-16T02:43:24;8.70;;;3.90;;
70385;SDS011;63206;55.650;37.500;2022-10-16T02:45:53;9.90;;;4.32;;
70385;SDS011;63206;55.650;37.500;2022-10-16T02:48:19;10.43;;;3.80;;
70385;SDS011;63206;55.650;37.500;2022-10-16T02:50:47;9.20;;;3.88;;
70385;SDS011;63206;55.650;37.500;2022-10-16T02:53:13;10.15;;;4.30;;
70385;SDS011;63206;55.650;37.500;2022-10-16T02:55:42;9.40;;;4.00;;
70385;SDS011;63206;55.650;37.500;2022-10-16T02:58:08;9.70;;;4.13;;
70385;SDS011;63206;55.650;37.500;2022-10-16T03:00:36;9.85;;;4.05;;
70385;SDS011;63206;55.650;37.500;2022-10-16T03:03:08;10.70;;;4.50;;
70385;SDS011;63206;55.650;37.500;2022-10-16T03:05:37;11.18;;;4.35;;
70385;SDS011;63206;55.650;37.500;2022-10-16T03:08:05;9.18;;;3.60;;
70385;SDS011;63206;55.650;37.500;2022-10-16T03:10:37;9.32;;;3.72;;
70385;SDS011;63206;55.650;37.500;2022-10-16T03:13:05;12.43;;;4.47;;
70385;SDS011;63206;55.650;37.500;2022-10-16T03:15:34;9.50;;;3.92;;
70385;SDS011;63206;55.650;37.500;2022-10-16T03:18:02;9.45;;;4.35;;
70385;SDS011;63206;55.650;37.500;2022-10-16T03:20:28;9.85;;;4.20;;
70385;SDS011;63206;55.650;37.500;2022-10-16T03:23:03;10.13;;;4.30;;
70385;SDS011;63206;55.650;37.500;2022-10-16T03:25:29;8.85;;;4.05;;
70385;SDS011;63206;55.650;37.500;2022-10-16T03:27:58;10.25;;;3.85;;
70385;SDS011;63206;55.650;37.500;2022-10-16T03:30:27;9.25;;;3.78;;
70385;SDS011;63206;55.650;37.500;2022-10-16T03:32:58;11.65;;;4.07;;
70385;SDS011;63206;55.650;37.500;2022-10-16T03:35:29;10.35;;;3.97;;
70385;SDS011;63206;55.650;37.500;2022-10-16T03:38:01;9.75;;;4.07;;
70385;SDS011;63206;55.650;37.500;2022-10-16T03:40:29;8.55;;;3.78;;
70385;SDS011;63206;55.650;37.500;2022-10-16T03:43:00;12.10;;;4.50;;
70385;SDS011;63206;55.650;37.500;2022-10-16T03:45:29;11.40;;;3.90;;
70385;SDS011;63206;55.650;37.500;2022-10-16T03:47:55;9.95;;;3.97;;
70385;SDS011;63206;55.650;37.500;2022-10-16T03:50:24;10.38;;;4.18;;
70385;SDS011;63206;55.650;37.500;2022-10-16T03:52:55;11.63;;;4.00;;
70385;SDS011;63206;55.650;37.500;2022-10-16T03:55:21;12.57;;;4.10;;
70385;SDS011;63206;55.650;37.500;2022-10-16T03:57:50;11.30;;;4.25;;
70385;SDS011;63206;55.650;37.500;2022-10-16T04:00:16;13.18;;;3.92;;
70385;SDS011;63206;55.650;37.500;2022-10-16T04:02:45;12.35;;;4.03;;
70385;SDS011;63206;55.650;37.500;2022-10-16T04:05:11;10.93;;;4.15;;
70385;SDS011;63206;55.650;37.500;2022-10-16T04:07:40;9.82;;;3.72;;
70385;SDS011;63206;55.650;37.500;2022-10-16T04:10:06;11.00;;;3.90;;
70385;SDS011;63206;55.650;37.500;2022-10-16T04:12:34;10.60;;;4.15;;
70385;SDS011;63206;55.650;37.500;2022-10-16T04:15:06;9.80;;;4.53;;
70385;SDS011;63206;55.650;37.500;2022-10-16T04:17:32;10.60;;;4.03;;
70385;SDS011;63206;55.650;37.500;2022-10-16T04:19:58;11.13;;;4.10;;
70385;SDS011;63206;55.650;37.500;2022-10-16T04:22:24;10.40;;;4.05;;
70385;SDS011;63206;55.650;37.500;2022-10-16T04:24:55;10.93;;;4.22;;
70385;SDS011;63206;55.650;37.500;2022-10-16T04:27:21;9.68;;;4.20;;
70385;SDS011;63206;55.650;37.500;2022-10-16T04:29:49;10.25;;;4.30;;
70385;SDS011;63206;55.650;37.500;2022-10-16T04:32:15;11.80;;;4.22;;
70385;SDS011;63206;55.650;37.500;2022-10-16T04:34:44;9.80;;;4.40;;
70385;SDS011;63206;55.650;37.500;2022-10-16T04:37:13;11.70;;;4.50;;
70385;SDS011;63206;55.650;37.500;2022-10-16T04:39:39;11.25;;;4.55;;
70385;SDS011;63206;55.650;37.500;2022-10-16T04:42:05;11.10;;;4.28;;
70385;SDS011;63206;55.650;37.500;2022-10-16T04:44:31;13.38;;;4.90;;
70385;SDS011;63206;55.650;37.500;2022-10-16T04:47:00;12.57;;;4.60;;
70385;SDS011;63206;55.650;37.500;2022-10-16T04:49:26;11.88;;;4.60;;
70385;SDS011;63206;55.650;37.500;2022-10-16T04:51:55;11.52;;;4.75;;
70385;SDS011;63206;55.650;37.500;2022-10-16T04:56:48;10.80;;;4.90;;
70385;SDS011;63206;55.650;37.500;2022-10-16T04:59:22;11.02;;;5.05;;
70385;SDS011;63206;55.650;37.500;2022-10-16T05:01:50;11.55;;;5.10;;
70385;SDS011;63206;55.650;37.500;2022-10-16T05:04:19;14.77;;;4.95;;
70385;SDS011;63206;55.650;37.500;2022-10-16T05:06:49;12.43;;;4.82;;
70385;SDS011;63206;55.650;37.500;2022-10-16T05:09:18;10.35;;;4.20;;
70385;SDS011;63206;55.650;37.500;2022-10-16T05:11:46;12.93;;;4.68;;
70385;SDS011;63206;55.650;37.500;2022-10-16T05:14:18;13.60;;;4.90;;
70385;SDS011;63206;55.650;37.500;2022-10-16T05:16:46;12.35;;;4.68;;
70385;SDS011;63206;55.650;37.500;2022-10-16T05:19:19;11.35;;;4.90;;
70385;SDS011;63206;55.650;37.500;2022-10-16T05:21:53;13.88;;;4.88;;
70385;SDS011;63206;55.650;37.500;2022-10-16T05:24:21;15.60;;;4.88;;
70385;SDS011;63206;55.650;37.500;2022-10-16T05:26:50;13.27;;;4.88;;
70385;SDS011;63206;55.650;37.500;2022-10-16T05:29:19;15.98;;;4.85;;
70385;SDS011;63206;55.650;37.500;2022-10-16T05:31:52;11.40;;;4.93;;
70385;SDS011;63206;55.650;37.500;2022-10-16T05:34:20;11.75;;;5.13;;
70385;SDS011;63206;55.650;37.500;2022-10-16T05:36:52;14.48;;;5.00;;
70385;SDS011;63206;55.650;37.500;2022-10-16T05:39:23;12.70;;;4.40;;
70385;SDS011;63206;55.650;37.500;2022-10-16T05:41:55;12.63;;;4.93;;
70385;SDS011;63206;55.650;37.500;2022-10-16T05:44:21;12.27;;;4.50;;
70385;SDS011;63206;55.650;37.500;2022-10-16T05:46:50;9.98;;;4.47;;
70385;SDS011;63206;55.650;37.500;2022-10-16T05:49:18;12.07;;;4.85;;
70385;SDS011;63206;55.650;37.500;2022-10-16T05:51:50;12.80;;;4.60;;
70385;SDS011;63206;55.650;37.500;2022-10-16T05:54:19;12.57;;;4.82;;
70385;SDS011;63206;55.650;37.500;2022-10-16T05:56:44;11.90;;;4.47;;
70385;SDS011;63206;55.650;37.500;2022-10-16T05:59:10;13.32;;;4.72;;
70385;SDS011;63206;55.650;37.500;2022-10-16T06:01:39;11.15;;;4.38;;
70385;SDS011;63206;55.650;37.500;2022-10-16T06:04:11;10.18;;;4.55;;
70385;SDS011;63206;55.650;37.500;2022-10-16T06:06:37;12.57;;;4.57;;
70385;SDS011;63206;55.650;37.500;2022-10-16T06:09:09;12.52;;;4.88;;
70385;SDS011;63206;55.650;37.500;2022-10-16T06:11:38;10.60;;;5.05;;
70385;SDS011;63206;55.650;37.500;2022-10-16T06:14:07;12.90;;;4.70;;
70385;SDS011;63206;55.650;37.500;2022-10-16T06:16:34;10.50;;;4.85;;
70385;SDS011;63206;55.650;37.500;2022-10-16T06:19:05;12.75;;;4.80;;
70385;SDS011;63206;55.650;37.500;2022-10-16T06:21:36;11.02;;;4.72;;
70385;SDS011;63206;55.650;37.500;2022-10-16T06:24:02;12.68;;;5.30;;
70385;SDS011;63206;55.650;37.500;2022-10-16T06:26:33;11.85;;;4.72;;
70385;SDS011;63206;55.650;37.500;2022-10-16T06:29:02;11.13;;;4.70;;
70385;SDS011;63206;55.650;37.500;2022-10-16T06:31:31;11.85;;;4.85;;
70385;SDS011;63206;55.650;37.500;2022-10-16T06:33:59;15.32;;;5.43;;
70385;SDS011;63206;55.650;37.500;2022-10-16T06:36:25;13.75;;;5.10;;
70385;SDS011;63206;55.650;37.500;2022-10-16T06:38:53;9.50;;;4.43;;
70385;SDS011;63206;55.650;37.500;2022-10-16T06:41:22;13.50;;;4.65;;
70385;SDS011;63206;55.650;37.500;2022-10-16T06:43:48;13.18;;;4.65;;
70385;SDS011;63206;55.650;37.500;2022-10-16T06:46:18;12.07;;;4.60;;
70385;SDS011;63206;55.650;37.500;2022-10-16T06:48:48;10.30;;;4.80;;
70385;SDS011;63206;55.650;37.500;2022-10-16T06:51:20;11.32;;;4.38;;
70385;SDS011;63206;55.650;37.500;2022-10-16T06:53:53;14.35;;;4.93;;
70385;SDS011;63206;55.650;37.500;2022-10-16T06:56:27;14.00;;;5.20;;
70385;SDS011;63206;55.650;37.500;2022-10-16T06:58:55;14.43;;;4.88;;
70385;SDS011;63206;55.650;37.500;2022-10-16T07:01:24;13.48;;;4.88;;
70385;SDS011;63206;55.650;37.500;2022-10-16T07:03:50;13.93;;;5.00;;
70385;SDS011;63206;55.650;37.500;2022-10-16T07:06:22;12.88;;;4.95;;
70385;SDS011;63206;55.650;37.500;2022-10-16T07:08:52;11.32;;;5.10;;
70385;SDS011;63206;55.650;37.500;2022-10-16T07:11:22;10.80;;;4.95;;
70385;SDS011;63206;55.650;37.500;2022-10-16T07:13:49;13.07;;;5.18;;
70385;SDS011;63206;55.650;37.500;2022-10-16T07:16:22;12.68;;;5.18;;
70385;SDS011;63206;55.650;37.500;2022-10-16T07:18:48;13.13;;;5.22;;
70385;SDS011;63206;55.650;37.500;2022-10-16T07:21:23;12.48;;;5.03;;
70385;SDS011;63206;55.650;37.500;2022-10-16T07:23:51;11.90;;;5.38;;
70385;SDS011;63206;55.650;37.500;2022-10-16T07:26:20;12.98;;;5.13;;
70385;SDS011;63206;55.650;37.500;2022-10-16T07:28:57;14.25;;;5.10;;
70385;SDS011;63206;55.650;37.500;2022-10-16T07:31:26;16.73;;;5.65;;
70385;SDS011;63206;55.650;37.500;2022-10-16T07:33:54;11.90;;;5.28;;
70385;SDS011;63206;55.650;37.500;2022-10-16T07:36:26;13.38;;;4.72;;
70385;SDS011;63206;55.650;37.500;2022-10-16T07:38:52;16.10;;;5.18;;
70385;SDS011;63206;55.650;37.500;2022-10-16T07:41:21;13.05;;;5.13;;
70385;SDS011;63206;55.650;37.500;2022-10-16T07:43:47;12.60;;;5.03;;
70385;SDS011;63206;55.650;37.500;2022-10-16T07:46:17;12.45;;;4.93;;
70385;SDS011;63206;55.650;37.500;2022-10-16T07:48:44;12.00;;;5.25;;
70385;SDS011;63206;55.650;37.500;2022-10-16T07:51:15;14.00;;;5.72;;
70385;SDS011;63206;55.650;37.500;2022-10-16T07:53:47;14.45;;;5.00;;
70385;SDS011;63206;55.650;37.500;2022-10-16T07:56:19;15.13;;;5.40;;
70385;SDS011;63206;55.650;37.500;2022-10-16T07:58:45;11.45;;;5.00;;
70385;SDS011;63206;55.650;37.500;2022-10-16T08:01:12;13.05;;;5.53;;
70385;SDS011;63206;55.650;37.500;2022-10-16T08:03:41;12.80;;;4.95;;
70385;SDS011;63206;55.650;37.500;2022-10-16T08:06:13;12.70;;;4.78;;
70385;SDS011;63206;55.650;37.500;2022-10-16T08:08:44;11.50;;;5.25;;
70385;SDS011;63206;55.650;37.500;2022-10-16T08:11:10;11.80;;;5.00;;
70385;SDS011;63206;55.650;37.500;2022-10-16T08:13:41;11.48;;;4.93;;
70385;SDS011;63206;55.650;37.500;2022-10-16T08:16:08;12.85;;;4.53;;
70385;SDS011;63206;55.650;37.500;2022-10-16T08:18:36;12.15;;;4.35;;
70385;SDS011;63206;55.650;37.500;2022-10-16T08:21:07;11.77;;;5.00;;
70385;SDS011;63206;55.650;37.500;2022-10-16T08:23:40;11.10;;;4.30;;
70385;SDS011;63206;55.650;37.500;2022-10-16T08:26:09;11.23;;;4.18;;
70385;SDS011;63206;55.650;37.500;2022-10-16T08:28:37;13.23;;;4.78;;
70385;SDS011;63206;55.650;37.500;2022-10-16T08:31:37;10.88;;;4.50;;
70385;SDS011;63206;55.650;37.500;2022-10-16T08:33:59;12.82;;;4.45;;
70385;SDS011;63206;55.650;37.500;2022-10-16T08:36:28;12.63;;;4.47;;
70385;SDS011;63206;55.650;37.500;2022-10-16T08:38:59;14.07;;;4.82;;
70385;SDS011;63206;55.650;37.500;2022-10-16T08:44:04;12.35;;;4.53;;
70385;SDS011;63206;55.650;37.500;2022-10-16T08:47:02;11.52;;;4.45;;
70385;SDS011;63206;55.650;37.500;2022-10-16T08:49:24;14.23;;;4.05;;
70385;SDS011;63206;55.650;37.500;2022-10-16T08:51:53;9.50;;;4.20;;
70385;SDS011;63206;55.650;37.500;2022-10-16T08:54:37;13.23;;;3.70;;
70385;SDS011;63206;55.650;37.500;2022-10-16T08:57:17;13.40;;;3.60;;
70385;SDS011;63206;55.650;37.500;2022-10-16T08:59:49;11.40;;;3.97;;
70385;SDS011;63206;55.650;37.500;2022-10-16T09:02:26;10.00;;;4.07;;
70385;SDS011;63206;55.650;37.500;2022-10-16T09:04:59;10.57;;;4.15;;
70385;SDS011;63206;55.650;37.500;2022-10-16T09:12:59;9.60;;;3.20;;
70385;SDS011;63206;55.650;37.500;2022-10-16T09:15:34;9.02;;;3.28;;
70385;SDS011;63206;55.650;37.500;2022-10-16T09:18:21;11.52;;;3.38;;
70385;SDS011;63206;55.650;37.500;2022-10-16T09:20:50;10.13;;;3.67;;
70385;SDS011;63206;55.650;37.500;2022-10-16T09:23:22;8.18;;;3.33;;
70385;SDS011;63206;55.650;37.500;2022-10-16T09:25:58;9.23;;;3.40;;
70385;SDS011;63206;55.650;37.500;2022-10-16T09:28:30;8.18;;;3.22;;
70385;SDS011;63206;55.650;37.500;2022-10-16T09:30:58;11.10;;;3.38;;
70385;SDS011;63206;55.650;37.500;2022-10-16T09:33:28;9.48;;;3.88;;
70385;SDS011;63206;55.650;37.500;2022-10-16T09:36:00;8.95;;;3.67;;
70385;SDS011;63206;55.650;37.500;2022-10-16T09:38:31;8.50;;;3.35;;
70385;SDS011;63206;55.650;37.500;2022-10-16T09:40:58;9.43;;;3.35;;
70385;SDS011;63206;55.650;37.500;2022-10-16T09:46:21;7.95;;;3.40;;
70385;SDS011;63206;55.650;37.500;2022-10-16T09:48:51;11.27;;;3.50;;
70385;SDS011;63206;55.650;37.500;2022-10-16T09:51:40;11.38;;;3.58;;
70385;SDS011;63206;55.650;37.500;2022-10-16T09:56:36;10.27;;;3.55;;
70385;SDS011;63206;55.650;37.500;2022-10-16T09:59:19;11.05;;;3.20;;
70385;SDS011;63206;55.650;37.500;2022-10-16T10:01:50;10.13;;;3.38;;
70385;SDS011;63206;55.650;37.500;2022-10-16T10:04:25;8.30;;;3.45;;
70385;SDS011;63206;55.650;37.500;2022-10-16T10:06:59;10.82;;;3.30;;
70385;SDS011;63206;55.650;37.500;2022-10-16T10:09:33;8.10;;;3.28;;
70385;SDS011;63206;55.650;37.500;2022-10-16T10:12:14;9.77;;;3.28;;
70385;SDS011;63206;55.650;37.500;2022-10-16T10:14:47;8.57;;;3.30;;
70385;SDS011;63206;55.650;37.500;2022-10-16T10:17:21;9.27;;;3.20;;
70385;SDS011;63206;55.650;37.500;2022-10-16T10:19:52;11.43;;;3.20;;
70385;SDS011;63206;55.650;37.500;2022-10-16T10:22:23;9.65;;;3.03;;
70385;SDS011;63206;55.650;37.500;2022-10-16T10:27:55;10.20;;;3.58;;
70385;SDS011;63206;55.650;37.500;2022-10-16T10:35:39;9.75;;;2.97;;
70385;SDS011;63206;55.650;37.500;2022-10-16T10:40:55;10.20;;;3.28;;
70385;SDS011;63206;55.650;37.500;2022-10-16T10:54:02;8.45;;;3.20;;
70385;SDS011;63206;55.650;37.500;2022-10-16T10:56:45;7.05;;;3.13;;
70385;SDS011;63206;55.650;37.500;2022-10-16T11:07:17;10.45;;;3.30;;
70385;SDS011;63206;55.650;37.500;2022-10-16T11:09:53;6.82;;;3.10;;
70385;SDS011;63206;55.650;37.500;2022-10-16T11:12:29;9.55;;;3.15;;
70385;SDS011;63206;55.650;37.500;2022-10-16T11:14:58;8.10;;;3.20;;
70385;SDS011;63206;55.650;37.500;2022-10-16T11:17:38;7.40;;;3.10;;
70385;SDS011;63206;55.650;37.500;2022-10-16T11:25:34;7.60;;;2.83;;
70385;SDS011;63206;55.650;37.500;2022-10-16T11:30:43;8.90;;;3.33;;
70385;SDS011;63206;55.650;37.500;2022-10-16T11:36:07;9.48;;;3.15;;
70385;SDS011;63206;55.650;37.500;2022-10-16T11:41:18;9.45;;;2.85;;
70385;SDS011;63206;55.650;37.500;2022-10-16T11:43:49;11.63;;;3.17;;
70385;SDS011;63206;55.650;37.500;2022-10-16T11:46:19;6.05;;;2.78;;
70385;SDS011;63206;55.650;37.500;2022-10-16T11:54:02;9.73;;;3.95;;
70385;SDS011;63206;55.650;37.500;2022-10-16T11:56:30;9.90;;;3.80;;
70385;SDS011;63206;55.650;37.500;2022-10-16T11:59:02;8.38;;;3.47;;
70385;SDS011;63206;55.650;37.500;2022-10-16T12:11:53;10.82;;;3.08;;
70385;SDS011;63206;55.650;37.500;2022-10-16T12:14:21;9.75;;;3.08;;
70385;SDS011;63206;55.650;37.500;2022-10-16T12:19:16;9.82;;;3.15;;
70385;SDS011;63206;55.650;37.500;2022-10-16T12:21:43;11.18;;;3.92;;
70385;SDS011;63206;55.650;37.500;2022-10-16T12:26:48;9.07;;;3.45;;
70385;SDS011;63206;55.650;37.500;2022-10-16T12:29:22;12.13;;;4.70;;
70385;SDS011;63206;55.650;37.500;2022-10-16T12:31:49;11.02;;;3.45;;
70385;SDS011;63206;55.650;37.500;2022-10-16T12:36:47;9.23;;;3.30;;
70385;SDS011;63206;55.650;37.500;2022-10-16T12:39:27;8.05;;;3.08;;
70385;SDS011;63206;55.650;37.500;2022-10-16T12:42:03;11.13;;;3.70;;
70385;SDS011;63206;55.650;37.500;2022-10-16T12:44:33;9.80;;;3.75;;
70385;SDS011;63206;55.650;37.500;2022-10-16T12:47:00;8.48;;;3.25;;
70385;SDS011;63206;55.650;37.500;2022-10-16T12:51:55;9.65;;;3.60;;
70385;SDS011;63206;55.650;37.500;2022-10-16T12:54:39;10.10;;;3.42;;
70385;SDS011;63206;55.650;37.500;2022-10-16T12:59:43;8.80;;;3.33;;
70385;SDS011;63206;55.650;37.500;2022-10-16T13:04:55;7.72;;;3.15;;
70385;SDS011;63206;55.650;37.500;2022-10-16T13:07:40;7.28;;;3.10;;
70385;SDS011;63206;55.650;37.500;2022-10-16T13:10:11;9.18;;;3.38;;
70385;SDS011;63206;55.650;37.500;2022-10-16T13:15:41;7.65;;;3.17;;
70385;SDS011;63206;55.650;37.500;2022-10-16T13:18:14;9.70;;;3.97;;
70385;SDS011;63206;55.650;37.500;2022-10-16T13:28:34;8.70;;;3.20;;
70385;SDS011;63206;55.650;37.500;2022-10-16T13:31:01;9.82;;;3.63;;
70385;SDS011;63206;55.650;37.500;2022-10-16T13:33:37;10.88;;;3.83;;
70385;SDS011;63206;55.650;37.500;2022-10-16T13:36:05;7.72;;;3.33;;
70385;SDS011;63206;55.650;37.500;2022-10-16T13:38:32;9.65;;;3.63;;
70385;SDS011;63206;55.650;37.500;2022-10-16T13:40:59;11.65;;;3.45;;
70385;SDS011;63206;55.650;37.500;2022-10-16T13:43:32;9.88;;;3.53;;
70385;SDS011;63206;55.650;37.500;2022-10-16T13:48:28;9.45;;;3.30;;
70385;SDS011;63206;55.650;37.500;2022-10-16T13:53:35;10.85;;;4.05;;
70385;SDS011;63206;55.650;37.500;2022-10-16T13:56:05;9.20;;;3.90;;
70385;SDS011;63206;55.650;37.500;2022-10-16T13:58:32;10.60;;;4.05;;
70385;SDS011;63206;55.650;37.500;2022-10-16T14:01:00;9.73;;;3.65;;
70385;SDS011;63206;55.650;37.500;2022-10-16T14:03:29;8.85;;;3.70;;
70385;SDS011;63206;55.650;37.500;2022-10-16T14:05:59;11.93;;;4.07;;
70385;SDS011;63206;55.650;37.500;2022-10-16T14:08:29;12.00;;;4.45;;
70385;SDS011;63206;55.650;37.500;2022-10-16T14:10:59;12.85;;;4.05;;
70385;SDS011;63206;55.650;37.500;2022-10-16T14:13:29;10.93;;;3.85;;
70385;SDS011;63206;55.650;37.500;2022-10-16T14:15:55;9.75;;;3.70;;
70385;SDS011;63206;55.650;37.500;2022-10-16T14:18:29;13.13;;;4.38;;
70385;SDS011;63206;55.650;37.500;2022-10-16T14:21:01;10.77;;;4.18;;
70385;SDS011;63206;55.650;37.500;2022-10-16T14:23:29;12.13;;;4.20;;
70385;SDS011;63206;55.650;37.500;2022-10-16T14:28:38;12.35;;;4.22;;
70385;SDS011;63206;55.650;37.500;2022-10-16T14:31:27;11.20;;;4.63;;
70385;SDS011;63206;55.650;37.500;2022-10-16T14:33:52;9.27;;;3.90;;
70385;SDS011;63206;55.650;37.500;2022-10-16T14:36:18;12.40;;;3.90;;
70385;SDS011;63206;55.650;37.500;2022-10-16T14:39:14;10.20;;;4.00;;
70385;SDS011;63206;55.650;37.500;2022-10-16T14:41:43;11.55;;;4.07;;
70385;SDS011;63206;55.650;37.500;2022-10-16T14:44:10;14.23;;;4.13;;
70385;SDS011;63206;55.650;37.500;2022-10-16T14:46:38;8.85;;;4.15;;
70385;SDS011;63206;55.650;37.500;2022-10-16T14:51:36;13.90;;;4.63;;
70385;SDS011;63206;55.650;37.500;2022-10-16T14:54:03;11.02;;;4.40;;
70385;SDS011;63206;55.650;37.500;2022-10-16T14:56:43;10.73;;;4.43;;
70385;SDS011;63206;55.650;37.500;2022-10-16T14:59:17;13.38;;;4.90;;
70385;SDS011;63206;55.650;37.500;2022-10-16T15:01:46;12.02;;;4.50;;
70385;SDS011;63206;55.650;37.500;2022-10-16T15:04:15;10.73;;;4.82;;
70385;SDS011;63206;55.650;37.500;2022-10-16T15:06:42;11.57;;;4.65;;
70385;SDS011;63206;55.650;37.500;2022-10-16T15:09:13;12.77;;;4.53;;
70385;SDS011;63206;55.650;37.500;2022-10-16T15:11:42;9.60;;;4.47;;
70385;SDS011;63206;55.650;37.500;2022-10-16T15:14:11;12.18;;;4.65;;
70385;SDS011;63206;55.650;37.500;2022-10-16T15:16:41;10.60;;;4.55;;
70385;SDS011;63206;55.650;37.500;2022-10-16T15:19:07;11.15;;;5.03;;
70385;SDS011;63206;55.650;37.500;2022-10-16T15:21:33;11.80;;;4.78;;
70385;SDS011;63206;55.650;37.500;2022-10-16T15:24:02;10.68;;;4.35;;
70385;SDS011;63206;55.650;37.500;2022-10-16T15:26:31;12.07;;;4.50;;
70385;SDS011;63206;55.650;37.500;2022-10-16T15:28:57;10.95;;;4.28;;
70385;SDS011;63206;55.650;37.500;2022-10-16T15:31:26;12.10;;;4.60;;
70385;SDS011;63206;55.650;37.500;2022-10-16T15:33:54;9.13;;;3.92;;
70385;SDS011;63206;55.650;37.500;2022-10-16T15:36:27;12.13;;;4.22;;
70385;SDS011;63206;55.650;37.500;2022-10-16T15:38:53;10.52;;;4.15;;
70385;SDS011;63206;55.650;37.500;2022-10-16T15:41:22;11.68;;;4.60;;
70385;SDS011;63206;55.650;37.500;2022-10-16T15:43:48;10.48;;;4.07;;
70385;SDS011;63206;55.650;37.500;2022-10-16T15:46:15;11.15;;;4.10;;
70385;SDS011;63206;55.650;37.500;2022-10-16T15:48:45;12.38;;;4.40;;
70385;SDS011;63206;55.650;37.500;2022-10-16T15:51:11;9.88;;;4.20;;
70385;SDS011;63206;55.650;37.500;2022-10-16T15:53:37;9.55;;;3.97;;
70385;SDS011;63206;55.650;37.500;2022-10-16T15:56:04;11.32;;;3.95;;
70385;SDS011;63206;55.650;37.500;2022-10-16T15:58:33;10.48;;;4.53;;
70385;SDS011;63206;55.650;37.500;2022-10-16T16:01:02;10.45;;;4.28;;
70385;SDS011;63206;55.650;37.500;2022-10-16T16:03:29;8.75;;;3.95;;
70385;SDS011;63206;55.650;37.500;2022-10-16T16:05:56;9.88;;;4.22;;
70385;SDS011;63206;55.650;37.500;2022-10-16T16:08:25;11.43;;;4.50;;
70385;SDS011;63206;55.650;37.500;2022-10-16T16:11:04;12.70;;;4.68;;
70385;SDS011;63206;55.650;37.500;2022-10-16T16:13:30;12.30;;;4.93;;
70385;SDS011;63206;55.650;37.500;2022-10-16T16:15:59;11.45;;;4.82;;
70385;SDS011;63206;55.650;37.500;2022-10-16T16:18:28;10.38;;;4.55;;
70385;SDS011;63206;55.650;37.500;2022-10-16T16:20:57;16.85;;;4.60;;
70385;SDS011;63206;55.650;37.500;2022-10-16T16:23:23;12.32;;;4.93;;
70385;SDS011;63206;55.650;37.500;2022-10-16T16:26:05;12.00;;;4.85;;
70385;SDS011;63206;55.650;37.500;2022-10-16T16:28:32;13.95;;;4.95;;
70385;SDS011;63206;55.650;37.500;2022-10-16T16:31:00;10.98;;;4.55;;
70385;SDS011;63206;55.650;37.500;2022-10-16T16:33:26;12.40;;;4.97;;
70385;SDS011;63206;55.650;37.500;2022-10-16T16:35:56;12.60;;;5.47;;
70385;SDS011;63206;55.650;37.500;2022-10-16T16:38:22;11.10;;;4.72;;
70385;SDS011;63206;55.650;37.500;2022-10-16T16:40:48;11.07;;;4.57;;
70385;SDS011;63206;55.650;37.500;2022-10-16T16:43:14;11.25;;;4.57;;
70385;SDS011;63206;55.650;37.500;2022-10-16T16:45:40;14.15;;;4.95;;
70385;SDS011;63206;55.650;37.500;2022-10-16T16:48:06;11.80;;;4.38;;
70385;SDS011;63206;55.650;37.500;2022-10-16T16:50:38;10.20;;;4.40;;
70385;SDS011;63206;55.650;37.500;2022-10-16T16:53:04;12.50;;;5.15;;
70385;SDS011;63206;55.650;37.500;2022-10-16T16:55:30;15.38;;;4.80;;